Maran Canopus — SXUQ — position and weather

sailwx.info

Track history (hours):
 
Tides and Currents Weather Stations Pressure Air Temp Water Temp Dewpoint Dewpoint Depression Visibility Wind Speed Wind Dir Waves Ship Positions

Maran Canopus

Last reported at 2015-Mar-01 10:25 UTC. Time now 2015-Mar-06 21:43 UTC.
Position N 22°22' E 119°40'.

Length 333 m; draft 11.5 m.

Type: Tanker. MMSI: 240677000.

Date/timePositionNaut miles runAvg speedWind from/ knotsBaromVisibWave heightAir tempDewpointWater temp
2015-Mar-01 10:25N 22°22' E 119°40'1112.2
2015-Mar-01 09:31N 22°32' E 119°45'1212.1
2015-Mar-01 08:33N 22°43' E 119°48'1211.6
2015-Mar-01 07:33N 22°55' E 119°50'  
2015-Feb-26 03:32N 35°06' E 119°53'1010.1
2015-Feb-26 02:33N 35°07' E 119°41'1212.3
2015-Feb-26 01:32N 35°06' E 119°26'2 0.1
2015-Feb-25 05:13N 35°06' E 119°24'0 0.0
2015-Feb-24 12:30N 35°06' E 119°24'0 0.0
2015-Feb-24 11:06N 35°06' E 119°24'0 0.0
2015-Feb-24 10:30N 35°06' E 119°24'0 0.0
2015-Feb-24 09:24N 35°06' E 119°24'0 0.0
2015-Feb-24 02:16N 35°06' E 119°24'1 1.2
2015-Feb-24 01:34N 35°06' E 119°25'8 8.2
2015-Feb-24 00:33N 35°07' E 119°35'9 8.7
2015-Feb-23 23:34N 35°07' E 119°46'4 4.1
2015-Feb-23 22:33N 35°07' E 119°51'3 2.7
2015-Feb-23 21:32N 35°07' E 119°54'5 4.6
2015-Feb-23 20:23N 35°07' E 120°01'4 0.4
2015-Feb-23 10:11N 35°11' E 120°01'2 1.4
2015-Feb-23 08:29N 35°09' E 120°03'1 1.1
2015-Feb-23 07:29N 35°08' E 120°03'1 0.3
2015-Feb-23 04:22N 35°07' E 120°04'1 0.9
2015-Feb-23 03:12N 35°07' E 120°03'1 1.3
2015-Feb-23 02:33N 35°06' E 120°02'0 0.4
2015-Feb-23 01:09N 35°06' E 120°01'1 0.9
2015-Feb-23 00:21N 35°07' E 120°02'2 0.1
2015-Feb-22 11:16N 35°07' E 120°04'0 0.0
2015-Feb-21 19:15N 35°07' E 120°04'0 0.0
2015-Feb-21 16:09N 35°07' E 120°04'0 0.0
2015-Feb-21 13:33N 35°07' E 120°04'0 0.1
2015-Feb-21 10:27N 35°07' E 120°04'0 0.1
2015-Feb-21 04:16N 35°07' E 120°04'0 0.0
2015-Feb-20 15:28N 35°07' E 120°04'0 0.0
2015-Feb-20 02:16N 35°07' E 120°04'0 0.1
2015-Feb-19 20:16N 35°07' E 120°04'0 0.1
2015-Feb-19 18:16N 35°07' E 120°04'0 0.1
2015-Feb-19 14:22N 35°07' E 120°04'0 0.0
2015-Feb-19 13:28N 35°07' E 120°04'0 0.1
2015-Feb-19 11:22N 35°07' E 120°04'  
Track history (hours):
 
Tides and Currents Weather Stations Pressure Air Temp Water Temp Dewpoint Dewpoint Depression Visibility Wind Speed Wind Dir Waves Ship Positions

Maran Canopus

Last reported at 2015-Mar-01 10:25 UTC. Time now 2015-Mar-06 21:43 UTC.
Position N 22°22' E 119°40'.

Length 333 m; draft 11.5 m.

Type: Tanker. MMSI: 240677000.

Date/timePositionNaut miles runAvg speedWind from/ knotsBaromVisibWave heightAir tempDewpointWater temp
2015-Mar-01 10:25N 22°22' E 119°40'1112.2
2015-Mar-01 09:31N 22°32' E 119°45'1212.1
2015-Mar-01 08:33N 22°43' E 119°48'1211.6
2015-Mar-01 07:33N 22°55' E 119°50'  
2015-Feb-26 03:32N 35°06' E 119°53'1010.1
2015-Feb-26 02:33N 35°07' E 119°41'1212.3
2015-Feb-26 01:32N 35°06' E 119°26'2 0.1
2015-Feb-25 05:13N 35°06' E 119°24'0 0.0
2015-Feb-24 12:30N 35°06' E 119°24'0 0.0
2015-Feb-24 11:06N 35°06' E 119°24'0 0.0
2015-Feb-24 10:30N 35°06' E 119°24'0 0.0
2015-Feb-24 09:24N 35°06' E 119°24'0 0.0
2015-Feb-24 02:16N 35°06' E 119°24'1 1.2
2015-Feb-24 01:34N 35°06' E 119°25'8 8.2
2015-Feb-24 00:33N 35°07' E 119°35'9 8.7
2015-Feb-23 23:34N 35°07' E 119°46'4 4.1
2015-Feb-23 22:33N 35°07' E 119°51'3 2.7
2015-Feb-23 21:32N 35°07' E 119°54'5 4.6
2015-Feb-23 20:23N 35°07' E 120°01'4 0.4
2015-Feb-23 10:11N 35°11' E 120°01'2 1.4
2015-Feb-23 08:29N 35°09' E 120°03'1 1.1
2015-Feb-23 07:29N 35°08' E 120°03'1 0.3
2015-Feb-23 04:22N 35°07' E 120°04'1 0.9
2015-Feb-23 03:12N 35°07' E 120°03'1 1.3
2015-Feb-23 02:33N 35°06' E 120°02'0 0.4
2015-Feb-23 01:09N 35°06' E 120°01'1 0.9
2015-Feb-23 00:21N 35°07' E 120°02'2 0.1
2015-Feb-22 11:16N 35°07' E 120°04'0 0.0
2015-Feb-21 19:15N 35°07' E 120°04'0 0.0
2015-Feb-21 16:09N 35°07' E 120°04'0 0.0
2015-Feb-21 13:33N 35°07' E 120°04'0 0.1
2015-Feb-21 10:27N 35°07' E 120°04'0 0.1
2015-Feb-21 04:16N 35°07' E 120°04'0 0.0
2015-Feb-20 15:28N 35°07' E 120°04'0 0.0
2015-Feb-20 02:16N 35°07' E 120°04'0 0.1
2015-Feb-19 20:16N 35°07' E 120°04'0 0.1
2015-Feb-19 18:16N 35°07' E 120°04'0 0.1
2015-Feb-19 14:22N 35°07' E 120°04'0 0.0
2015-Feb-19 13:28N 35°07' E 120°04'0 0.1
2015-Feb-19 11:22N 35°07' E 120°04'  

Dump ship's entire track history